Time;durP1;ratioP1;P1;durP2;ratioP2;P2;SDS_P1;SDS_P2;PMS_P1;PMS_P2;Temp;Humidity;BMP_temperature;BMP_pressure;BME280_temperature;BME280_humidity;BME280_pressure;Samples;Min_cycle;Max_cycle;Signal;HPM_P1;HPM_P2
2021/09/22 00:02:07;;;;;;;11.03;7.80;;;12.00;99.90;;;;;;5073322;28;20545;-63
2021/09/22 00:04:33;;;;;;;12.15;7.50;;;12.00;99.90;;;;;;5073312;28;20122;-63
2021/09/22 00:06:59;;;;;;;11.13;7.93;;;12.00;99.90;;;;;;5071982;28;20484;-62
2021/09/22 00:09:25;;;;;;;10.60;8.33;;;12.00;99.90;;;;;;5073497;28;20036;-63
2021/09/22 00:11:50;;;;;;;10.25;7.75;;;12.00;99.90;;;;;;5073357;28;20025;-64
2021/09/22 00:14:16;;;;;;;11.48;8.32;;;11.90;99.90;;;;;;5073220;28;20035;-63
2021/09/22 00:16:42;;;;;;;10.87;8.37;;;11.70;99.90;;;;;;5073103;28;20032;-64
2021/09/22 00:19:07;;;;;;;11.77;9.13;;;11.60;99.90;;;;;;5073450;28;20384;-62
2021/09/22 00:21:33;;;;;;;12.83;9.00;;;11.50;99.90;;;;;;5073558;28;20028;-61
2021/09/22 00:23:59;;;;;;;11.37;8.57;;;11.40;99.90;;;;;;5073851;28;20039;-63
2021/09/22 00:26:25;;;;;;;;;;;11.30;99.90;;;;;;5073601;28;20259;-63
2021/09/22 00:28:51;;;;;;;11.13;8.25;;;11.20;99.90;;;;;;5071958;28;19911;-62
2021/09/22 00:31:17;;;;;;;13.20;9.33;;;11.20;99.90;;;;;;5071897;28;20078;-63
2021/09/22 00:33:43;;;;;;;13.10;9.30;;;11.20;99.90;;;;;;5073623;28;20842;-63
2021/09/22 00:36:08;;;;;;;13.05;9.30;;;11.10;99.90;;;;;;5072779;28;20032;-63
2021/09/22 00:38:34;;;;;;;13.43;9.43;;;11.10;99.90;;;;;;5077282;28;20036;-62
2021/09/22 00:41:00;;;;;;;11.43;8.57;;;11.00;99.90;;;;;;5077279;28;20036;-63
2021/09/22 00:43:26;;;;;;;14.57;9.02;;;11.00;99.90;;;;;;5075661;28;20293;-61
2021/09/22 00:45:51;;;;;;;12.65;9.15;;;11.00;99.90;;;;;;5077174;28;20495;-62
2021/09/22 00:48:17;;;;;;;10.97;8.77;;;11.00;99.90;;;;;;5077266;28;20098;-62
2021/09/22 00:50:43;;;;;;;13.47;9.07;;;11.00;99.90;;;;;;5076923;28;20094;-63
2021/09/22 00:53:11;;;;;;;14.83;9.67;;;11.00;99.90;;;;;;5075832;28;20025;-61
2021/09/22 00:55:38;;;;;;;14.27;9.30;;;11.00;99.90;;;;;;5077076;28;20296;-63
2021/09/22 00:58:07;;;;;;;14.30;9.30;;;10.90;99.90;;;;;;5077169;28;20013;-62
2021/09/22 01:00:37;;;;;;;11.80;9.15;;;10.90;99.90;;;;;;5077455;28;20056;-61
2021/09/22 01:03:06;;;;;;;13.70;9.70;;;10.80;99.90;;;;;;5077011;28;20473;-62
2021/09/22 01:05:32;;;;;;;13.07;9.65;;;10.80;99.90;;;;;;5076581;28;20032;-62
2021/09/22 01:07:59;;;;;;;14.93;9.80;;;10.70;99.90;;;;;;5077712;28;20021;-62
2021/09/22 01:10:25;;;;;;;15.45;9.60;;;10.70;99.90;;;;;;5076794;28;20025;-60
2021/09/22 01:12:50;;;;;;;13.82;9.52;;;10.70;99.90;;;;;;5076544;28;20496;-61
2021/09/22 01:15:26;;;;;;;13.97;9.37;;;10.70;99.90;;;;;;5076389;28;20056;-60
2021/09/22 01:17:52;;;;;;;15.90;9.60;;;10.60;99.90;;;;;;5076440;28;20370;-60
2021/09/22 01:20:18;;;;;;;14.35;9.30;;;10.60;99.90;;;;;;5076623;28;20029;-58
2021/09/22 01:22:43;;;;;;;13.13;8.63;;;10.60;99.90;;;;;;5076340;28;20037;-61
2021/09/22 01:25:11;;;;;;;13.97;9.57;;;10.60;99.90;;;;;;5076277;28;20493;-62
2021/09/22 01:27:52;;;;;;;14.93;9.30;;;10.50;99.90;;;;;;5076422;28;20100;-62
2021/09/22 01:30:18;;;;;;;13.07;8.80;;;10.40;99.90;;;;;;5076924;28;20465;-62
2021/09/22 01:32:54;;;;;;;14.07;9.10;;;10.40;99.90;;;;;;5076516;28;20042;-62
2021/09/22 01:35:21;;;;;;;9.77;8.52;;;10.40;99.90;;;;;;5076297;28;20062;-62
2021/09/22 01:37:47;;;;;;;12.60;8.93;;;10.30;99.90;;;;;;5077067;28;20029;-62
2021/09/22 01:40:13;;;;;;;14.65;9.23;;;10.30;99.90;;;;;;5076743;28;20427;-62
2021/09/22 01:42:39;;;;;;;11.80;8.80;;;10.30;99.90;;;;;;5075985;28;20113;-62
2021/09/22 01:45:10;;;;;;;12.83;8.50;;;10.30;99.90;;;;;;5075839;28;20028;-61
2021/09/22 01:47:35;;;;;;;13.13;8.95;;;10.30;99.90;;;;;;5074990;28;20305;-61
2021/09/22 01:50:06;;;;;;;11.27;8.37;;;10.30;99.90;;;;;;5091631;28;20025;-61
2021/09/22 01:52:33;;;;;;;12.65;8.75;;;10.30;99.90;;;;;;5075979;28;20058;-62
2021/09/22 01:54:59;;;;;;;12.05;8.85;;;10.40;99.90;;;;;;5075638;28;20039;-59
2021/09/22 01:57:24;;;;;;;11.20;8.33;;;10.40;99.90;;;;;;5076052;28;20029;-62
2021/09/22 01:59:50;;;;;;;13.03;8.63;;;10.40;99.90;;;;;;5074426;28;20293;-60
2021/09/22 02:02:16;;;;;;;10.50;7.60;;;10.40;99.90;;;;;;5075831;28;20028;-62
2021/09/22 02:04:42;;;;;;;12.23;8.15;;;10.30;99.90;;;;;;5075589;28;20028;-63
2021/09/22 02:07:09;;;;;;;15.27;9.13;;;10.40;99.90;;;;;;5075465;28;20362;-61
2021/09/22 02:09:34;;;;;;;12.35;9.48;;;10.40;99.90;;;;;;5075625;28;20353;-61
2021/09/22 02:12:00;;;;;;;11.00;8.68;;;10.40;99.90;;;;;;5075743;28;20021;-62
2021/09/22 02:14:26;;;;;;;11.57;8.87;;;10.40;99.90;;;;;;5074732;28;20064;-62
2021/09/22 02:16:53;;;;;;;12.40;8.90;;;10.30;99.90;;;;;;5074209;28;20029;-62
2021/09/22 02:19:19;;;;;;;11.30;8.63;;;10.30;99.90;;;;;;5074434;28;20029;-62
2021/09/22 02:21:45;;;;;;;13.73;8.60;;;10.20;99.90;;;;;;5075276;28;20032;-62
2021/09/22 02:24:10;;;;;;;11.30;8.67;;;10.20;99.90;;;;;;5075132;28;20115;-62
2021/09/22 02:26:36;;;;;;;13.40;9.67;;;10.10;99.90;;;;;;5075239;28;20496;-62
2021/09/22 02:29:07;;;;;;;13.57;10.23;;;10.10;99.90;;;;;;5075248;28;20451;-62
2021/09/22 02:31:33;;;;;;;11.05;8.60;;;10.10;99.90;;;;;;5075476;28;20031;-61
2021/09/22 02:34:00;;;;;;;12.25;8.43;;;10.10;99.90;;;;;;5073972;28;20024;-62
2021/09/22 02:36:26;;;;;;;13.77;9.23;;;10.10;99.90;;;;;;5106474;22;20104;-68
2021/09/22 02:38:52;;;;;;;11.65;8.57;;;10.10;99.90;;;;;;5094628;28;20016;-68
2021/09/22 02:41:18;;;;;;;12.80;8.35;;;10.10;99.90;;;;;;5094685;28;20032;-68
2021/09/22 02:43:44;;;;;;;12.10;8.43;;;10.10;99.90;;;;;;5094706;28;20111;-68
2021/09/22 02:46:10;;;;;;;13.00;8.82;;;10.20;99.90;;;;;;5094538;28;20491;-68
2021/09/22 02:48:35;;;;;;;13.73;9.47;;;10.20;99.90;;;;;;5094538;28;20032;-68
2021/09/22 02:51:01;;;;;;;12.23;8.33;;;10.20;99.90;;;;;;5094542;28;20686;-68
2021/09/22 02:53:26;;;;;;;11.87;8.70;;;10.10;99.90;;;;;;5094584;28;20027;-68
2021/09/22 02:55:52;;;;;;;18.17;9.30;;;10.10;99.90;;;;;;5094442;28;20423;-68
2021/09/22 02:58:18;;;;;;;13.80;9.17;;;10.10;99.90;;;;;;5094295;28;20032;-68
2021/09/22 03:00:43;;;;;;;13.93;8.60;;;10.10;99.90;;;;;;5077121;28;20153;-68
2021/09/22 03:03:09;;;;;;;11.00;8.50;;;10.10;99.90;;;;;;5076086;28;20028;-68
2021/09/22 03:05:35;;;;;;;11.63;8.77;;;10.10;99.90;;;;;;5094152;28;20104;-68
2021/09/22 03:08:00;;;;;;;12.37;9.10;;;10.10;99.90;;;;;;5101363;28;20349;-69
2021/09/22 03:10:27;;;;;;;14.13;8.63;;;10.10;99.90;;;;;;5100271;28;20258;-68
2021/09/22 03:12:53;;;;;;;10.80;8.27;;;10.10;99.90;;;;;;5076411;28;20278;-68
2021/09/22 03:15:19;;;;;;;12.63;9.30;;;10.00;99.90;;;;;;5093863;28;20034;-68
2021/09/22 03:17:45;;;;;;;13.73;8.73;;;10.00;99.90;;;;;;5075496;28;20020;-68
2021/09/22 03:20:11;;;;;;;12.32;8.77;;;10.00;99.90;;;;;;5095795;28;20028;-68
2021/09/22 03:22:37;;;;;;;11.95;8.77;;;10.00;99.90;;;;;;5077571;28;20077;-68
2021/09/22 03:25:05;;;;;;;13.40;9.57;;;9.90;99.90;;;;;;5094317;28;20384;-68
2021/09/22 03:27:31;;;;;;;14.93;9.30;;;9.90;99.90;;;;;;5093756;28;20473;-68
2021/09/22 03:29:56;;;;;;;12.48;8.35;;;9.80;99.90;;;;;;5093698;28;20028;-68
2021/09/22 03:32:22;;;;;;;11.80;9.10;;;9.70;99.90;;;;;;5075483;28;20032;-68
2021/09/22 03:34:48;;;;;;;14.17;9.60;;;9.60;99.90;;;;;;5093560;28;20724;-68
2021/09/22 03:37:13;;;;;;;13.43;9.53;;;9.60;99.90;;;;;;5093551;28;20107;-68
2021/09/22 03:39:39;;;;;;;13.57;9.03;;;9.50;99.90;;;;;;5093547;28;20339;-68
2021/09/22 03:42:04;;;;;;;12.97;9.57;;;9.50;99.90;;;;;;5093573;28;20023;-68
2021/09/22 03:44:30;;;;;;;12.13;9.13;;;9.40;99.90;;;;;;5093477;28;20051;-68
2021/09/22 03:46:56;;;;;;;12.20;9.73;;;9.40;99.90;;;;;;5075258;28;20395;-68
2021/09/22 03:49:22;;;;;;;14.73;9.83;;;9.40;99.90;;;;;;5093683;28;20457;-68
2021/09/22 03:51:47;;;;;;;12.15;9.23;;;9.30;99.90;;;;;;5075549;28;20454;-69
2021/09/22 03:54:13;;;;;;;12.70;9.73;;;9.30;99.90;;;;;;5093223;28;20024;-69
2021/09/22 03:56:39;;;;;;;12.80;8.77;;;9.30;99.90;;;;;;5075111;28;20024;-68
2021/09/22 03:59:05;;;;;;;12.02;9.25;;;9.30;99.90;;;;;;5075064;28;20552;-68
2021/09/22 04:01:31;;;;;;;13.90;9.07;;;9.30;99.90;;;;;;5093463;28;20356;-68
2021/09/22 04:03:56;;;;;;;12.50;9.00;;;9.20;99.90;;;;;;5093429;28;20425;-68
2021/09/22 04:06:22;;;;;;;13.87;9.33;;;9.20;99.90;;;;;;5093016;28;20050;-68
2021/09/22 04:08:49;;;;;;;12.37;9.60;;;9.10;99.90;;;;;;5093098;28;20258;-68
2021/09/22 04:11:15;;;;;;;12.70;9.02;;;9.00;99.90;;;;;;5092658;28;20020;-68
2021/09/22 04:13:41;;;;;;;17.50;8.68;;;9.00;99.90;;;;;;5074927;28;20024;-68
2021/09/22 04:16:06;;;;;;;13.40;9.87;;;9.00;99.90;;;;;;5093211;28;20032;-67
2021/09/22 04:18:32;;;;;;;14.70;9.23;;;9.00;99.90;;;;;;5093189;28;20031;-68
2021/09/22 04:20:58;;;;;;;13.47;9.83;;;8.90;99.90;;;;;;5076583;28;20032;-67
2021/09/22 04:23:23;;;;;;;14.33;8.97;;;8.90;99.90;;;;;;5094240;28;20020;-69
2021/09/22 04:25:49;;;;;;;14.57;8.83;;;8.90;99.90;;;;;;5093582;28;20411;-67
2021/09/22 04:28:15;;;;;;;11.73;9.20;;;8.90;99.90;;;;;;5093783;28;20107;-67
2021/09/22 04:30:40;;;;;;;11.33;8.57;;;8.90;99.90;;;;;;5093371;28;20464;-67
2021/09/22 04:33:06;;;;;;;12.23;9.07;;;9.00;99.90;;;;;;5092823;28;20020;-67
2021/09/22 04:35:34;;;;;;;12.07;8.80;;;9.10;99.90;;;;;;5092774;28;20414;-68
2021/09/22 04:38:00;;;;;;;13.50;9.10;;;9.10;99.90;;;;;;5093022;28;20030;-67
2021/09/22 04:40:28;;;;;;;14.73;10.00;;;9.10;99.90;;;;;;5074818;28;20032;-67
2021/09/22 04:42:58;;;;;;;12.45;9.13;;;9.20;99.90;;;;;;5092964;28;20024;-67
2021/09/22 04:45:25;;;;;;;16.00;9.73;;;9.10;99.90;;;;;;5092874;28;20111;-67
2021/09/22 04:47:52;;;;;;;13.43;9.10;;;9.20;99.90;;;;;;5074821;28;20027;-67
2021/09/22 04:50:17;;;;;;;;;;;9.20;99.90;;;;;;5093234;28;20114;-68
2021/09/22 04:52:43;;;;;;;14.68;9.35;;;9.20;99.90;;;;;;5093010;28;19905;-67
2021/09/22 04:55:09;;;;;;;11.40;9.13;;;9.30;99.90;;;;;;5093165;28;20023;-68
2021/09/22 04:57:35;;;;;;;16.45;9.55;;;9.30;99.90;;;;;;5074342;28;20270;-68
2021/09/22 05:00:01;;;;;;;13.73;9.13;;;9.30;99.90;;;;;;5074457;28;20028;-68
2021/09/22 05:02:26;;;;;;;15.18;9.73;;;9.30;99.90;;;;;;5092540;28;20098;-68
2021/09/22 05:04:52;;;;;;;14.93;9.80;;;9.40;99.90;;;;;;5092509;28;20024;-69
2021/09/22 05:07:18;;;;;;;14.43;9.83;;;9.40;99.90;;;;;;5074375;28;20020;-68
2021/09/22 05:09:43;;;;;;;12.10;9.53;;;9.40;99.90;;;;;;5074552;28;20034;-67
2021/09/22 05:12:09;;;;;;;14.33;9.20;;;9.50;99.90;;;;;;5092632;28;20374;-68
2021/09/22 05:14:34;;;;;;;15.03;9.67;;;9.50;99.90;;;;;;5092750;28;20620;-69
2021/09/22 05:17:00;;;;;;;14.90;9.17;;;9.50;99.90;;;;;;5097322;28;20031;-70
2021/09/22 05:19:27;;;;;;;12.30;9.37;;;9.50;99.90;;;;;;5097138;28;20021;-69
2021/09/22 05:21:53;;;;;;;14.20;10.02;;;9.40;99.90;;;;;;5078036;28;20062;-71
2021/09/22 05:24:19;;;;;;;13.85;9.70;;;9.30;99.90;;;;;;5080630;28;20394;-70
2021/09/22 05:26:45;;;;;;;26.00;11.90;;;9.30;99.90;;;;;;5085590;28;20461;-70
2021/09/22 05:29:11;;;;;;;15.82;10.75;;;9.20;99.90;;;;;;5104587;28;20016;-71
2021/09/22 05:31:36;;;;;;;16.75;11.18;;;9.20;99.90;;;;;;5101583;28;20027;-70
2021/09/22 05:34:02;;;;;;;14.80;9.67;;;9.10;99.90;;;;;;5099554;28;20085;-71
2021/09/22 05:36:28;;;;;;;17.13;11.27;;;9.10;99.90;;;;;;5079479;28;20294;-71
2021/09/22 05:38:54;;;;;;;14.00;9.83;;;9.20;99.90;;;;;;5097195;28;20035;-71
2021/09/22 05:41:19;;;;;;;14.48;9.60;;;9.10;99.90;;;;;;5097420;28;20477;-71
2021/09/22 05:43:45;;;;;;;16.07;10.30;;;9.20;99.90;;;;;;5095644;28;20146;-71
2021/09/22 05:46:10;;;;;;;13.97;9.37;;;9.10;99.90;;;;;;5095203;28;20099;-69
2021/09/22 05:48:36;;;;;;;14.67;9.87;;;9.10;99.90;;;;;;5078059;28;20063;-69
2021/09/22 05:51:02;;;;;;;14.47;9.77;;;9.10;99.90;;;;;;5096290;28;20413;-69
2021/09/22 05:53:27;;;;;;;14.80;10.50;;;9.10;99.90;;;;;;5077440;28;20134;-69
2021/09/22 05:55:53;;;;;;;13.40;9.83;;;9.10;99.90;;;;;;5077507;28;20115;-70
2021/09/22 05:58:20;;;;;;;16.93;10.27;;;9.00;99.90;;;;;;5077383;28;20277;-70
2021/09/22 06:00:46;;;;;;;;;;;9.00;99.90;;;;;;5096210;28;20392;-70
2021/09/22 06:03:11;;;;;;;20.05;9.80;;;9.10;99.90;;;;;;5096100;28;19983;-69
2021/09/22 06:05:39;;;;;;;16.00;10.90;;;9.10;99.90;;;;;;5095780;28;20085;-70
2021/09/22 06:08:06;;;;;;;16.52;10.32;;;9.20;99.90;;;;;;5095559;28;20024;-71
2021/09/22 06:10:32;;;;;;;13.40;9.93;;;9.20;99.90;;;;;;5095439;28;20055;-71
2021/09/22 06:12:58;;;;;;;19.85;10.63;;;9.30;99.90;;;;;;5077395;28;20073;-69
2021/09/22 06:15:24;;;;;;;12.97;10.37;;;9.30;99.90;;;;;;5095172;28;20032;-70
2021/09/22 06:17:50;;;;;;;17.55;10.02;;;9.30;99.90;;;;;;5076827;28;20383;-70
2021/09/22 06:20:16;;;;;;;18.20;10.50;;;9.40;99.90;;;;;;5095121;28;20074;-70
2021/09/22 06:22:42;;;;;;;15.82;9.93;;;9.40;99.90;;;;;;5094958;28;20021;-70
2021/09/22 06:25:08;;;;;;;14.73;10.53;;;9.40;99.90;;;;;;5094847;28;20066;-70
2021/09/22 06:27:34;;;;;;;16.95;10.55;;;9.50;99.90;;;;;;5076734;28;20270;-70
2021/09/22 06:30:00;;;;;;;17.20;11.23;;;9.50;99.90;;;;;;5076621;28;20445;-69
2021/09/22 06:32:26;;;;;;;17.27;11.20;;;9.60;99.90;;;;;;5076438;28;20024;-70
2021/09/22 06:34:51;;;;;;;17.40;11.47;;;9.60;99.90;;;;;;5094397;28;20099;-70
2021/09/22 06:37:17;;;;;;;16.23;11.47;;;9.70;99.90;;;;;;5076249;28;20631;-70
2021/09/22 06:39:43;;;;;;;15.87;11.10;;;9.70;99.90;;;;;;5076557;28;20024;-70
2021/09/22 06:42:08;;;;;;;17.50;11.13;;;9.80;99.90;;;;;;5076291;28;20031;-70
2021/09/22 06:44:34;;;;;;;13.87;10.30;;;9.90;99.90;;;;;;5076334;28;20051;-70
2021/09/22 06:47:00;;;;;;;15.18;10.82;;;9.80;99.90;;;;;;5076155;28;20110;-70
2021/09/22 06:49:26;;;;;;;15.83;10.87;;;9.90;99.90;;;;;;5094320;28;20353;-70
2021/09/22 06:51:51;;;;;;;15.80;10.55;;;10.00;99.90;;;;;;5076386;28;20020;-70
2021/09/22 06:54:17;;;;;;;13.87;10.17;;;10.10;99.90;;;;;;5076138;28;20162;-70
2021/09/22 06:56:43;;;;;;;16.90;10.80;;;10.10;99.90;;;;;;5094546;28;20464;-70
2021/09/22 06:59:08;;;;;;;16.23;10.43;;;10.20;99.90;;;;;;5075891;28;20043;-69
2021/09/22 07:01:34;;;;;;;14.97;10.67;;;10.30;99.90;;;;;;5094376;28;20077;-70
2021/09/22 07:03:59;;;;;;;15.50;10.03;;;10.40;99.90;;;;;;5094252;28;20035;-70
2021/09/22 07:06:25;;;;;;;15.70;11.27;;;10.50;99.90;;;;;;5094149;28;20031;-70
2021/09/22 07:08:51;;;;;;;15.73;10.90;;;10.60;99.90;;;;;;5094006;28;20077;-70
2021/09/22 07:11:16;;;;;;;14.80;10.10;;;10.60;99.90;;;;;;5093889;28;20281;-70
2021/09/22 07:13:42;;;;;;;16.50;10.37;;;10.70;99.90;;;;;;5093954;28;20031;-69
2021/09/22 07:16:10;;;;;;;15.63;10.07;;;10.80;99.90;;;;;;5075665;28;20032;-69
2021/09/22 07:18:36;;;;;;;16.10;11.60;;;10.90;99.90;;;;;;5093923;28;20518;-70
2021/09/22 07:21:05;;;;;;;19.40;12.57;;;11.00;99.90;;;;;;5075573;28;20024;-69
2021/09/22 07:23:30;;;;;;;13.65;10.02;;;11.20;99.90;;;;;;5093639;28;20024;-69
2021/09/22 07:25:57;;;;;;;15.07;10.57;;;11.30;99.90;;;;;;5075547;28;20035;-70
2021/09/22 07:28:22;;;;;;;16.58;11.15;;;11.30;99.90;;;;;;5075525;28;20028;-70
2021/09/22 07:30:48;;;;;;;16.90;11.20;;;11.50;99.90;;;;;;5093935;28;20099;-70
2021/09/22 07:33:14;;;;;;;16.85;11.15;;;11.60;99.90;;;;;;5075379;28;20287;-70
2021/09/22 07:35:40;;;;;;;14.93;10.50;;;11.70;99.90;;;;;;5075634;28;20181;-70
2021/09/22 07:38:05;;;;;;;19.38;11.63;;;11.80;99.90;;;;;;5075767;28;20785;-70
2021/09/22 07:40:32;;;;;;;16.33;11.05;;;11.70;99.90;;;;;;5093819;28;20032;-70
2021/09/22 07:42:58;;;;;;;17.58;10.95;;;11.70;99.90;;;;;;5093402;28;20027;-70
2021/09/22 07:45:24;;;;;;;16.92;11.75;;;11.70;99.90;;;;;;5074763;28;20385;-70
2021/09/22 07:47:49;;;;;;;15.27;11.20;;;11.60;99.90;;;;;;5075147;28;20016;-70
2021/09/22 07:50:15;;;;;;;17.70;12.10;;;11.60;99.90;;;;;;5079163;28;20028;-71
2021/09/22 07:52:41;;;;;;;15.57;11.75;;;11.50;99.90;;;;;;5105429;28;20020;-70
2021/09/22 07:55:09;;;;;;;16.83;12.50;;;11.60;99.90;;;;;;5093902;28;20028;-71
2021/09/22 07:57:35;;;;;;;18.75;11.68;;;11.60;99.90;;;;;;5074849;28;20115;-69
2021/09/22 08:00:01;;;;;;;15.98;11.57;;;11.70;99.90;;;;;;5074921;28;20052;-70
2021/09/22 08:02:26;;;;;;;19.03;11.40;;;11.80;99.90;;;;;;5075011;28;20480;-70
2021/09/22 08:04:52;;;;;;;17.17;11.97;;;11.90;99.90;;;;;;5074859;28;20270;-70
2021/09/22 08:07:19;;;;;;;16.52;11.13;;;12.00;99.90;;;;;;5075102;28;20120;-70
2021/09/22 08:09:46;;;;;;;17.13;12.87;;;12.10;99.90;;;;;;5093288;28;20016;-70
2021/09/22 08:12:11;;;;;;;15.88;11.55;;;12.10;99.90;;;;;;5074680;28;20362;-70
2021/09/22 08:14:38;;;;;;;23.52;13.75;;;12.20;99.90;;;;;;5092735;28;20063;-70
2021/09/22 08:17:05;;;;;;;17.77;12.27;;;12.40;99.90;;;;;;5093007;28;20040;-70
2021/09/22 08:19:33;;;;;;;16.17;11.68;;;12.50;99.90;;;;;;5074567;28;20110;-70
2021/09/22 08:21:59;;;;;;;20.15;12.60;;;12.60;99.90;;;;;;5074890;28;20078;-71
2021/09/22 08:24:24;;;;;;;15.43;11.80;;;12.80;99.90;;;;;;5093062;28;20028;-71
2021/09/22 08:26:52;;;;;;;18.75;11.80;;;13.00;99.90;;;;;;5075256;28;20119;-71
2021/09/22 08:29:19;;;;;;;17.77;11.15;;;13.20;99.90;;;;;;5075459;28;20055;-70
2021/09/22 08:31:45;;;;;;;14.65;11.07;;;13.40;99.90;;;;;;5075252;28;20039;-71
2021/09/22 08:34:11;;;;;;;18.90;11.30;;;13.60;99.90;;;;;;5074485;28;20427;-70
2021/09/22 08:36:39;;;;;;;15.82;10.70;;;13.70;99.90;;;;;;5093167;28;20043;-71
2021/09/22 08:39:05;;;;;;;15.15;11.18;;;14.00;99.90;;;;;;5092919;28;20043;-71
2021/09/22 08:41:30;;;;;;;14.02;10.65;;;14.20;99.90;;;;;;5074603;28;20074;-71
2021/09/22 08:44:03;;;;;;;15.00;10.75;;;14.30;99.90;;;;;;5074515;28;20112;-71
2021/09/22 08:46:31;;;;;;;16.58;10.60;;;14.50;99.90;;;;;;5074551;28;20119;-71
2021/09/22 08:49:00;;;;;;;16.70;11.27;;;14.70;99.90;;;;;;5074816;28;20081;-71
2021/09/22 08:51:25;;;;;;;15.57;10.82;;;14.90;99.90;;;;;;5074616;28;20024;-71
2021/09/22 08:53:51;;;;;;;14.40;10.57;;;15.10;99.90;;;;;;5092969;28;20020;-71
2021/09/22 08:56:17;;;;;;;20.27;10.63;;;15.50;99.90;;;;;;5093085;28;20130;-72
2021/09/22 08:58:42;;;;;;;13.52;9.38;;;17.00;99.90;;;;;;5096677;28;20439;-72
2021/09/22 09:01:16;;;;;;;12.75;9.23;;;18.50;99.90;;;;;;5096658;28;20053;-72
2021/09/22 09:03:43;;;;;;;11.90;9.43;;;21.00;97.10;;;;;;5078155;28;20488;-72
2021/09/22 09:06:17;;;;;;;;;;;23.70;92.70;;;;;;5078374;28;20085;-71
2021/09/22 09:08:43;;;;;;;10.95;8.18;;;25.90;85.50;;;;;;5096317;28;19995;-71
2021/09/22 09:11:08;;;;;;;;;;;26.90;77.40;;;;;;5078543;28;20135;-71
2021/09/22 09:13:51;;;;;;;9.98;8.38;;;27.40;74.50;;;;;;5096389;28;19949;-72
2021/09/22 09:16:18;;;;;;;10.10;7.40;;;28.10;72.20;;;;;;5078217;28;20050;-72
2021/09/22 09:18:51;;;;;;;9.18;8.07;;;29.10;69.30;;;;;;5078389;28;20114;-72
2021/09/22 09:21:17;;;;;;;9.23;7.47;;;29.70;66.50;;;;;;5096583;28;20414;-72
2021/09/22 09:23:54;;;;;;;8.27;7.07;;;29.80;65.00;;;;;;5096946;28;20035;-72
2021/09/22 09:26:25;;;;;;;8.93;6.60;;;29.50;65.50;;;;;;5096406;28;20024;-72
2021/09/22 09:28:57;;;;;;;8.57;7.53;;;29.30;63.30;;;;;;5081776;28;20038;-72
2021/09/22 09:31:30;;;;;;;7.18;6.47;;;30.20;61.90;;;;;;5101563;28;20016;-72
2021/09/22 09:33:57;;;;;;;8.13;7.32;;;30.00;60.60;;;;;;5097640;28;20028;-72
2021/09/22 09:36:33;;;;;;;7.57;6.82;;;30.40;60.20;;;;;;5096912;28;20081;-72
2021/09/22 09:39:20;;;;;;;7.50;6.65;;;30.70;59.70;;;;;;5096296;28;20028;-72
2021/09/22 09:41:49;;;;;;;;;;;31.40;58.10;;;;;;5096658;28;20019;-72
2021/09/22 09:44:18;;;;;;;7.53;6.55;;;31.80;56.90;;;;;;5096110;28;19908;-73
2021/09/22 09:46:44;;;;;;;6.70;6.10;;;30.70;56.50;;;;;;5077634;28;20020;-71
2021/09/22 09:49:11;;;;;;;8.50;6.72;;;29.30;57.50;;;;;;5096158;28;20016;-72
2021/09/22 09:51:43;;;;;;;7.68;6.63;;;29.00;57.90;;;;;;5095966;28;20047;-72
2021/09/22 09:54:33;;;;;;;7.65;6.32;;;26.70;61.00;;;;;;5077773;28;20028;-72
2021/09/22 09:57:13;;;;;;;8.93;6.32;;;26.80;61.30;;;;;;5095807;28;20121;-71
2021/09/22 09:59:48;;;;;;;7.72;6.68;;;26.90;60.30;;;;;;5095843;28;20028;-71
2021/09/22 10:02:28;;;;;;;8.73;5.90;;;25.40;63.20;;;;;;5077530;28;20020;-71
2021/09/22 10:04:55;;;;;;;8.68;5.80;;;25.10;64.20;;;;;;5077334;28;20028;-71
2021/09/22 10:07:21;;;;;;;7.05;5.15;;;26.30;62.80;;;;;;5095168;28;20020;-72
2021/09/22 10:09:47;;;;;;;5.28;4.78;;;25.60;63.10;;;;;;5094511;28;20021;-71
2021/09/22 10:12:15;;;;;;;8.75;5.25;;;24.90;64.30;;;;;;5095671;28;20017;-71
2021/09/22 10:14:43;;;;;;;6.60;5.07;;;24.40;64.90;;;;;;5077270;28;20020;-72
2021/09/22 10:17:10;;;;;;;8.98;4.70;;;25.20;63.60;;;;;;5077159;28;20028;-71
2021/09/22 10:19:36;;;;;;;4.72;3.90;;;25.10;64.00;;;;;;5076980;28;20119;-71
2021/09/22 10:22:02;;;;;;;5.30;4.18;;;25.10;62.60;;;;;;5095205;28;20020;-71
2021/09/22 10:24:28;;;;;;;6.90;4.53;;;24.40;63.60;;;;;;5094929;28;20030;-72
2021/09/22 10:26:54;;;;;;;5.10;3.90;;;24.80;63.40;;;;;;5077058;28;20012;-72
2021/09/22 10:29:23;;;;;;;4.30;3.63;;;25.00;62.90;;;;;;5076518;28;20020;-72
2021/09/22 10:31:49;;;;;;;4.22;3.90;;;25.60;61.80;;;;;;5076454;28;20507;-72
2021/09/22 10:34:36;;;;;;;6.70;5.57;;;24.90;62.60;;;;;;5077929;28;20028;-73
2021/09/22 10:37:04;;;;;;;;;;;24.60;64.20;;;;;;5095695;28;20031;-72
2021/09/22 10:39:35;;;;;;;5.00;3.47;;;25.30;62.10;;;;;;5095038;28;19955;-71
2021/09/22 10:42:20;;;;;;;4.68;3.25;;;25.20;62.80;;;;;;5076666;28;20024;-71
2021/09/22 10:44:46;;;;;;;5.45;2.85;;;26.80;61.60;;;;;;5076551;28;20035;-72
2021/09/22 10:47:26;;;;;;;4.65;3.00;;;27.10;59.10;;;;;;5094912;28;20016;-72
2021/09/22 10:49:52;;;;;;;4.00;2.78;;;25.30;59.80;;;;;;5094808;28;20023;-72
2021/09/22 10:52:39;;;;;;;5.82;2.60;;;24.60;61.70;;;;;;5094656;28;20023;-71
2021/09/22 10:55:12;;;;;;;4.07;3.13;;;25.00;61.50;;;;;;5076279;28;20120;-72
2021/09/22 10:57:39;;;;;;;3.65;3.10;;;25.40;61.60;;;;;;5094226;28;20020;-72
2021/09/22 11:00:15;;;;;;;3.63;2.88;;;24.30;63.10;;;;;;5076039;28;20480;-71
2021/09/22 11:02:44;;;;;;;3.88;2.97;;;23.70;64.50;;;;;;5094207;28;20047;-72
2021/09/22 11:05:12;;;;;;;5.15;3.42;;;22.80;66.10;;;;;;5094180;28;20519;-71
2021/09/22 11:07:53;;;;;;;4.72;3.10;;;22.00;67.80;;;;;;5094117;28;20016;-72
2021/09/22 11:10:33;;;;;;;6.03;3.08;;;21.20;70.40;;;;;;5076213;28;20050;-72
2021/09/22 11:13:28;;;;;;;4.25;2.90;;;21.00;71.60;;;;;;5076705;28;20051;-72
2021/09/22 11:16:16;;;;;;;3.90;2.78;;;20.50;71.90;;;;;;5076970;28;20024;-72
2021/09/22 11:18:46;;;;;;;5.88;2.95;;;20.50;72.10;;;;;;5075750;28;20480;-72
2021/09/22 11:21:12;;;;;;;3.85;2.88;;;20.30;73.60;;;;;;5093472;28;20020;-72
2021/09/22 11:23:41;;;;;;;4.80;2.80;;;20.10;73.60;;;;;;5094045;28;20099;-71
2021/09/22 11:26:08;;;;;;;3.67;3.15;;;20.00;73.90;;;;;;5093903;28;20020;-72
2021/09/22 11:28:34;;;;;;;5.35;2.83;;;19.60;74.70;;;;;;5094256;28;20024;-71
2021/09/22 11:31:00;;;;;;;;;;;19.50;75.10;;;;;;5094842;28;20055;-71
2021/09/22 11:33:27;;;;;;;3.90;2.63;;;19.30;76.00;;;;;;5075644;28;19908;-72
2021/09/22 11:35:53;;;;;;;5.18;2.85;;;19.30;76.40;;;;;;5075396;28;20028;-72
2021/09/22 11:38:19;;;;;;;;;;;19.20;76.10;;;;;;5094185;28;20112;-71
2021/09/22 11:40:47;;;;;;;5.13;3.40;;;19.10;76.40;;;;;;5075706;28;19951;-71
2021/09/22 11:43:15;;;;;;;3.65;2.70;;;19.10;77.70;;;;;;5093892;28;20053;-71
2021/09/22 11:46:02;;;;;;;5.75;2.70;;;19.10;76.40;;;;;;5075452;28;20123;-72
2021/09/22 11:48:32;;;;;;;2.75;2.00;;;19.20;76.80;;;;;;5075817;28;20024;-72
2021/09/22 11:50:59;;;;;;;3.42;2.45;;;19.20;76.20;;;;;;5094334;28;20016;-72
2021/09/22 11:53:29;;;;;;;3.00;2.40;;;19.10;76.80;;;;;;5075238;28;20544;-72
2021/09/22 11:55:55;;;;;;;5.10;2.83;;;19.10;77.20;;;;;;5075155;28;20032;-72
2021/09/22 11:58:25;;;;;;;4.95;2.47;;;19.10;77.30;;;;;;5075455;28;20063;-72
2021/09/22 12:00:54;;;;;;;5.03;2.55;;;19.00;78.10;;;;;;5093355;28;20169;-72
2021/09/22 12:03:22;;;;;;;4.68;2.60;;;19.10;78.00;;;;;;5093720;28;20039;-72
2021/09/22 12:06:05;;;;;;;2.88;2.50;;;19.20;77.90;;;;;;5093167;28;20031;-71
2021/09/22 12:08:32;;;;;;;4.20;2.67;;;19.30;77.90;;;;;;5093361;28;20035;-71
2021/09/22 12:10:59;;;;;;;4.65;3.55;;;19.40;78.00;;;;;;5093648;28;20055;-71
2021/09/22 12:13:25;;;;;;;4.28;3.05;;;19.40;77.90;;;;;;5093419;28;20534;-72
2021/09/22 12:15:55;;;;;;;6.63;2.92;;;19.40;78.30;;;;;;5075169;28;20605;-73
2021/09/22 12:18:20;;;;;;;7.80;3.05;;;19.40;78.70;;;;;;5075188;28;20498;-72
2021/09/22 12:20:49;;;;;;;3.72;3.08;;;19.20;78.60;;;;;;5093224;28;20074;-73
2021/09/22 12:23:24;;;;;;;5.03;2.78;;;19.20;79.20;;;;;;5093162;28;20066;-74
2021/09/22 12:25:49;;;;;;;2.75;2.38;;;19.30;78.50;;;;;;5075141;28;20028;-71
2021/09/22 12:28:23;;;;;;;4.43;2.67;;;19.30;78.40;;;;;;5093052;28;20499;-70
2021/09/22 12:30:49;;;;;;;7.78;2.80;;;19.40;78.50;;;;;;5075324;28;20028;-69
2021/09/22 12:33:20;;;;;;;5.18;2.83;;;19.40;79.20;;;;;;5077999;28;20020;-67
2021/09/22 12:35:46;;;;;;;3.50;2.97;;;19.40;79.90;;;;;;5096872;28;20115;-68
2021/09/22 12:38:18;;;;;;;5.28;3.45;;;19.40;80.20;;;;;;5097062;28;20060;-68
2021/09/22 12:40:50;;;;;;;4.38;2.90;;;19.30;80.30;;;;;;5078783;28;20068;-68
2021/09/22 12:43:23;;;;;;;4.30;3.20;;;19.30;80.70;;;;;;5078663;28;20073;-68
2021/09/22 12:45:50;;;;;;;3.83;3.05;;;19.50;80.10;;;;;;5078583;28;20031;-68